Terminal Aerodrome Forecast
Issued by NWS Wilmington, OH

Current Version | Previous Version | Text Only | Print | Product List | Glossary Off
Versions: 1 2 3 4 5 6 7 8 9 10 11 12 13 14 15 16 17

892
FTUS41 KILN 100542
TAFCMH
TAF
KCMH 100542Z 1006/1106 29012KT P6SM -SHSN BKN015 OVC025
     FM100700 26010KT P6SM SCT015 OVC025
     FM101600 23012G20KT P6SM SCT025 BKN050
     FM102300 24008KT P6SM BKN040 OVC150=

USA.gov is the U.S. government's official web portal to all federal, state and local government web resources and services.